LGL311 ELLX-GCTS
Flight info
| Callsign | LGL311 |
|---|---|
| Flight time | 4h 20m |
| Altitude | 31000 |
| Route | RAPOR DCT GIMER DCT AHVEC UN857 RESMI/N0455F350 UN857 DISAK DCT ARKIP DCT ARNAV DCT LMG DCT UVELI DCT OSMOB/N0453F370 DCT ARVID DCT PPN N10 BAN N857 HIJ N10 SVL N857 KORNO UN857 TERTO |
| Aircraft | B38M/M-SDE1FGHILORVWXY/HB1 |
Departure
| Time | 2026-04-27 09:16 |
|---|---|
| Airport | Luxembourg-Findel International Airport (ELLX) |
Arrival
| Time | 2026-04-27 13:36 |
|---|---|
| Airport | Tenerife Sur Airport (GCTS) |
| Time | Latitude | Longitude | Altitude | Speed | Heading |
|---|---|---|---|---|---|
| 2026-04-27 08:43 | 49.63388 | 6.21794 | 1186 ft | 0 kts | 330° |
| 2026-04-27 09:05 | 49.63377 | 6.21804 | 1232 ft | 4 kts | 330° |
| 2026-04-27 09:05 | 49.63356 | 6.21826 | 1232 ft | 4 kts | 307° |
| 2026-04-27 09:06 | 49.63350 | 6.21860 | 1232 ft | 4 kts | 253° |
| 2026-04-27 09:06 | 49.63355 | 6.21878 | 1232 ft | 1 kts | 240° |
| 2026-04-27 09:09 | 49.63354 | 6.21877 | 1232 ft | 1 kts | 240° |
| 2026-04-27 09:09 | 49.63345 | 6.21854 | 1232 ft | 3 kts | 240° |
| 2026-04-27 09:09 | 49.63324 | 6.21817 | 1232 ft | 7 kts | 207° |
| 2026-04-27 09:10 | 49.63254 | 6.21849 | 1232 ft | 13 kts | 150° |
| 2026-04-27 09:10 | 49.63162 | 6.21889 | 1230 ft | 15 kts | 214° |
| 2026-04-27 09:10 | 49.63107 | 6.21742 | 1228 ft | 17 kts | 244° |
| 2026-04-27 09:10 | 49.63054 | 6.21575 | 1228 ft | 18 kts | 244° |
| 2026-04-27 09:11 | 49.63002 | 6.21408 | 1230 ft | 17 kts | 244° |
| 2026-04-27 09:11 | 49.62953 | 6.21251 | 1238 ft | 15 kts | 245° |
| 2026-04-27 09:11 | 49.62902 | 6.21087 | 1233 ft | 19 kts | 243° |
| 2026-04-27 09:11 | 49.62838 | 6.20878 | 1240 ft | 22 kts | 244° |
| 2026-04-27 09:12 | 49.62751 | 6.20691 | 1241 ft | 22 kts | 221° |
| 2026-04-27 09:12 | 49.62636 | 6.20535 | 1238 ft | 23 kts | 226° |
| 2026-04-27 09:12 | 49.62523 | 6.20333 | 1232 ft | 27 kts | 232° |
| 2026-04-27 09:12 | 49.62434 | 6.20115 | 1220 ft | 19 kts | 240° |
| 2026-04-27 09:13 | 49.62369 | 6.19939 | 1209 ft | 20 kts | 239° |
| 2026-04-27 09:13 | 49.62299 | 6.19751 | 1198 ft | 23 kts | 240° |
| 2026-04-27 09:13 | 49.62209 | 6.19510 | 1185 ft | 29 kts | 240° |
| 2026-04-27 09:13 | 49.62138 | 6.19320 | 1175 ft | 19 kts | 240° |
| 2026-04-27 09:14 | 49.62063 | 6.19118 | 1168 ft | 24 kts | 239° |
| 2026-04-27 09:14 | 49.61977 | 6.18886 | 1161 ft | 15 kts | 240° |
| 2026-04-27 09:14 | 49.61925 | 6.18790 | 1160 ft | 12 kts | 222° |
| 2026-04-27 09:14 | 49.61853 | 6.18713 | 1160 ft | 13 kts | 198° |
| 2026-04-27 09:15 | 49.61774 | 6.18762 | 1161 ft | 12 kts | 121° |
| 2026-04-27 09:15 | 49.61790 | 6.18855 | 1163 ft | 9 kts | 58° |
| 2026-04-27 09:15 | 49.61822 | 6.18937 | 1163 ft | 11 kts | 60° |
| 2026-04-27 09:15 | 49.61938 | 6.19253 | 1172 ft | 67 kts | 60° |
| 2026-04-27 09:16 | 49.62270 | 6.20145 | 1222 ft | 123 kts | 60° |
| 2026-04-27 09:16 | 49.62783 | 6.21516 | 1301 ft | 165 kts | 60° |
| 2026-04-27 09:16 | 49.63385 | 6.23090 | 1873 ft | 175 kts | 59° |
| 2026-04-27 09:16 | 49.64019 | 6.24747 | 2626 ft | 182 kts | 60° |
| 2026-04-27 09:17 | 49.64670 | 6.26470 | 3262 ft | 194 kts | 60° |
| 2026-04-27 09:17 | 49.65384 | 6.28369 | 3799 ft | 213 kts | 60° |
| 2026-04-27 09:17 | 49.66131 | 6.30444 | 4440 ft | 230 kts | 60° |
| 2026-04-27 09:17 | 49.66920 | 6.32599 | 5304 ft | 231 kts | 59° |
| 2026-04-27 09:18 | 49.67713 | 6.34795 | 6133 ft | 235 kts | 59° |
| 2026-04-27 09:18 | 49.68566 | 6.36952 | 6999 ft | 239 kts | 49° |
| 2026-04-27 09:18 | 49.69872 | 6.38572 | 7620 ft | 245 kts | 23° |
| 2026-04-27 09:18 | 49.71532 | 6.39132 | 8375 ft | 247 kts | 356° |
| 2026-04-27 09:19 | 49.73195 | 6.38508 | 9094 ft | 250 kts | 331° |
| 2026-04-27 09:19 | 49.74533 | 6.36834 | 9892 ft | 249 kts | 307° |
| 2026-04-27 09:19 | 49.75280 | 6.34454 | 10644 ft | 247 kts | 283° |
| 2026-04-27 09:19 | 49.75375 | 6.31820 | 11270 ft | 255 kts | 262° |
| 2026-04-27 09:20 | 49.74871 | 6.29157 | 11936 ft | 260 kts | 251° |
| 2026-04-27 09:20 | 49.74259 | 6.26513 | 12644 ft | 264 kts | 251° |
| 2026-04-27 09:20 | 49.73654 | 6.23819 | 13374 ft | 264 kts | 253° |
| 2026-04-27 09:20 | 49.73092 | 6.21120 | 14117 ft | 268 kts | 253° |
| 2026-04-27 09:21 | 49.72319 | 6.18434 | 14635 ft | 276 kts | 242° |
| 2026-04-27 09:21 | 49.71295 | 6.15894 | 15250 ft | 280 kts | 239° |
| 2026-04-27 09:21 | 49.70225 | 6.13365 | 15949 ft | 282 kts | 239° |
| 2026-04-27 09:21 | 49.69154 | 6.10803 | 16528 ft | 286 kts | 240° |
| 2026-04-27 09:22 | 49.68059 | 6.08147 | 16862 ft | 301 kts | 240° |
| 2026-04-27 09:22 | 49.66907 | 6.05325 | 17015 ft | 320 kts | 240° |
| 2026-04-27 09:22 | 49.65693 | 6.02335 | 17184 ft | 339 kts | 240° |
| 2026-04-27 09:22 | 49.64406 | 5.99156 | 17299 ft | 358 kts | 240° |
| 2026-04-27 09:23 | 49.63056 | 5.95817 | 17453 ft | 374 kts | 240° |
| 2026-04-27 09:23 | 49.61688 | 5.92327 | 17765 ft | 383 kts | 246° |
| 2026-04-27 09:23 | 49.60925 | 5.88441 | 18478 ft | 379 kts | 264° |
| 2026-04-27 09:23 | 49.60793 | 5.84355 | 18906 ft | 384 kts | 270° |
| 2026-04-27 09:24 | 49.60760 | 5.80222 | 19454 ft | 386 kts | 270° |
| 2026-04-27 09:24 | 49.60754 | 5.76083 | 19961 ft | 388 kts | 271° |
| 2026-04-27 09:24 | 49.60764 | 5.71905 | 20463 ft | 391 kts | 271° |
| 2026-04-27 09:24 | 49.60783 | 5.67695 | 20951 ft | 394 kts | 271° |
| 2026-04-27 09:25 | 49.60806 | 5.63461 | 21465 ft | 396 kts | 271° |
| 2026-04-27 09:25 | 49.60822 | 5.59199 | 21940 ft | 399 kts | 269° |
| 2026-04-27 09:25 | 49.60648 | 5.54921 | 22411 ft | 402 kts | 267° |
| 2026-04-27 09:25 | 49.60465 | 5.50609 | 22881 ft | 404 kts | 267° |
| 2026-04-27 09:26 | 49.60293 | 5.46328 | 23350 ft | 407 kts | 267° |
| 2026-04-27 09:26 | 49.60113 | 5.41962 | 23787 ft | 410 kts | 266° |
| 2026-04-27 09:26 | 49.59906 | 5.37569 | 24166 ft | 412 kts | 266° |
| 2026-04-27 09:26 | 49.59698 | 5.33149 | 24582 ft | 414 kts | 266° |
| 2026-04-27 09:27 | 49.59490 | 5.28721 | 24980 ft | 416 kts | 266° |
| 2026-04-27 09:27 | 49.59279 | 5.24262 | 25362 ft | 417 kts | 266° |
| 2026-04-27 09:27 | 49.58880 | 5.19830 | 25729 ft | 420 kts | 256° |
| 2026-04-27 09:27 | 49.58097 | 5.15487 | 26094 ft | 422 kts | 256° |
| 2026-04-27 09:28 | 49.57333 | 5.11108 | 26450 ft | 424 kts | 256° |
| 2026-04-27 09:28 | 49.56558 | 5.06719 | 26809 ft | 426 kts | 256° |
| 2026-04-27 09:28 | 49.55776 | 5.02310 | 27167 ft | 428 kts | 256° |
| 2026-04-27 09:28 | 49.54987 | 4.97882 | 27517 ft | 429 kts | 256° |
| 2026-04-27 09:29 | 49.54194 | 4.93446 | 27863 ft | 431 kts | 256° |
| 2026-04-27 09:29 | 49.53395 | 4.88985 | 28207 ft | 433 kts | 256° |
| 2026-04-27 09:29 | 49.52592 | 4.84511 | 28535 ft | 435 kts | 255° |
| 2026-04-27 09:29 | 49.51783 | 4.80016 | 28858 ft | 437 kts | 255° |
| 2026-04-27 09:30 | 49.50969 | 4.75505 | 29185 ft | 438 kts | 255° |
| 2026-04-27 09:30 | 49.50152 | 4.70987 | 29600 ft | 438 kts | 255° |
| 2026-04-27 09:30 | 49.49337 | 4.66493 | 30085 ft | 436 kts | 255° |
| 2026-04-27 09:30 | 49.48523 | 4.62017 | 30515 ft | 434 kts | 255° |
| 2026-04-27 09:31 | 49.47710 | 4.57556 | 30901 ft | 432 kts | 255° |
| 2026-04-27 09:31 | 49.46898 | 4.53110 | 31197 ft | 432 kts | 255° |
| 2026-04-27 09:31 | 49.46085 | 4.48671 | 31235 ft | 430 kts | 255° |
| 2026-04-27 09:32 | 49.44467 | 4.39865 | 31232 ft | 428 kts | 255° |
| 2026-04-27 09:32 | 49.42843 | 4.31069 | 31235 ft | 428 kts | 255° |
| 2026-04-27 09:33 | 49.41221 | 4.22330 | 31233 ft | 428 kts | 255° |
| 2026-04-27 09:33 | 49.39584 | 4.13548 | 31240 ft | 428 kts | 255° |
| 2026-04-27 09:34 | 49.37944 | 4.04785 | 31234 ft | 428 kts | 255° |
| 2026-04-27 09:34 | 49.35960 | 3.96212 | 31224 ft | 428 kts | 239° |
| 2026-04-27 09:35 | 49.32695 | 3.88552 | 31236 ft | 430 kts | 238° |
| 2026-04-27 09:35 | 49.29396 | 3.80899 | 31230 ft | 430 kts | 238° |
| 2026-04-27 09:36 | 49.26076 | 3.73274 | 31233 ft | 430 kts | 238° |
| 2026-04-27 09:36 | 49.22757 | 3.65680 | 31236 ft | 430 kts | 238° |
| 2026-04-27 09:37 | 49.19430 | 3.58088 | 31233 ft | 429 kts | 238° |
| 2026-04-27 09:37 | 49.16100 | 3.50511 | 31230 ft | 429 kts | 238° |
| 2026-04-27 09:38 | 49.12763 | 3.42943 | 31232 ft | 429 kts | 237° |
| 2026-04-27 09:38 | 49.09431 | 3.35403 | 31228 ft | 429 kts | 237° |
| 2026-04-27 09:39 | 49.06086 | 3.27858 | 31228 ft | 429 kts | 237° |
| 2026-04-27 09:39 | 49.02740 | 3.20331 | 31225 ft | 429 kts | 237° |
| 2026-04-27 09:40 | 48.99952 | 3.14074 | 31229 ft | 429 kts | 237° |
| 2026-04-27 09:40 | 48.96051 | 3.05346 | 31225 ft | 429 kts | 237° |
| 2026-04-27 09:41 | 48.93235 | 2.99062 | 31225 ft | 430 kts | 237° |
| 2026-04-27 09:41 | 48.89860 | 2.91551 | 31228 ft | 430 kts | 237° |
| 2026-04-27 09:42 | 48.86485 | 2.84058 | 31228 ft | 430 kts | 237° |
| 2026-04-27 09:42 | 48.83123 | 2.76612 | 31233 ft | 430 kts | 237° |
| 2026-04-27 09:43 | 48.79735 | 2.69141 | 31222 ft | 430 kts | 236° |
| 2026-04-27 09:43 | 48.76343 | 2.61675 | 31214 ft | 430 kts | 236° |
| 2026-04-27 09:44 | 48.72950 | 2.54229 | 31238 ft | 430 kts | 236° |
| 2026-04-27 09:44 | 48.69552 | 2.46792 | 31240 ft | 429 kts | 236° |
| 2026-04-27 09:45 | 48.66154 | 2.39374 | 31241 ft | 429 kts | 236° |
| 2026-04-27 09:45 | 48.62753 | 2.31971 | 31237 ft | 429 kts | 236° |
| 2026-04-27 09:46 | 48.59340 | 2.24576 | 31235 ft | 429 kts | 234° |
| 2026-04-27 09:46 | 48.57278 | 2.21331 | 31222 ft | 430 kts | 219° |
| 2026-04-27 09:46 | 48.54662 | 2.19120 | 31222 ft | 436 kts | 203° |
| 2026-04-27 09:47 | 48.48758 | 2.16707 | 31218 ft | 442 kts | 197° |
| 2026-04-27 09:47 | 48.42754 | 2.14656 | 31222 ft | 443 kts | 195° |
| 2026-04-27 09:48 | 48.36724 | 2.12695 | 31216 ft | 443 kts | 195° |
| 2026-04-27 09:48 | 48.30687 | 2.10756 | 31203 ft | 444 kts | 194° |
| 2026-04-27 09:48 | 48.27644 | 2.10344 | 31195 ft | 450 kts | 179° |
| 2026-04-27 09:49 | 48.24524 | 2.10911 | 31210 ft | 453 kts | 176° |
| 2026-04-27 09:49 | 48.18257 | 2.12143 | 31206 ft | 455 kts | 176° |
| 2026-04-27 09:50 | 48.11993 | 2.12831 | 31200 ft | 447 kts | 191° |
| 2026-04-27 09:50 | 48.05805 | 2.11689 | 31207 ft | 449 kts | 190° |
| 2026-04-27 09:51 | 47.99604 | 2.10529 | 31213 ft | 449 kts | 191° |
| 2026-04-27 09:51 | 47.93407 | 2.09347 | 31211 ft | 449 kts | 191° |
| 2026-04-27 09:52 | 47.87212 | 2.08166 | 31209 ft | 449 kts | 191° |
| 2026-04-27 09:52 | 47.81014 | 2.06987 | 31209 ft | 449 kts | 191° |
| 2026-04-27 09:53 | 47.74815 | 2.05810 | 31200 ft | 449 kts | 191° |
| 2026-04-27 09:53 | 47.68624 | 2.04637 | 31199 ft | 449 kts | 191° |
| 2026-04-27 09:54 | 47.62496 | 2.03079 | 31178 ft | 442 kts | 204° |
| 2026-04-27 09:54 | 47.56804 | 1.99809 | 31188 ft | 443 kts | 204° |
| 2026-04-27 09:55 | 47.51027 | 1.96493 | 31183 ft | 442 kts | 204° |
| 2026-04-27 09:55 | 47.42469 | 1.91550 | 31189 ft | 442 kts | 204° |
| 2026-04-27 09:56 | 47.36743 | 1.88250 | 31182 ft | 442 kts | 204° |
| 2026-04-27 09:56 | 47.31016 | 1.84958 | 31182 ft | 442 kts | 204° |
| 2026-04-27 09:57 | 47.25290 | 1.81674 | 31183 ft | 441 kts | 204° |
| 2026-04-27 09:57 | 47.19560 | 1.78409 | 31186 ft | 442 kts | 204° |
| 2026-04-27 09:58 | 47.13828 | 1.75178 | 31183 ft | 441 kts | 204° |
| 2026-04-27 09:58 | 47.08093 | 1.71948 | 31181 ft | 442 kts | 204° |
| 2026-04-27 09:59 | 47.02359 | 1.68728 | 31182 ft | 442 kts | 204° |
| 2026-04-27 09:59 | 46.96621 | 1.65511 | 31184 ft | 442 kts | 204° |
| 2026-04-27 10:00 | 46.90883 | 1.62303 | 31184 ft | 441 kts | 204° |
| 2026-04-27 10:00 | 46.85138 | 1.59098 | 31182 ft | 442 kts | 203° |
| 2026-04-27 10:01 | 46.79427 | 1.55918 | 31179 ft | 442 kts | 203° |
| 2026-04-27 10:01 | 46.73677 | 1.52725 | 31180 ft | 442 kts | 203° |
| 2026-04-27 10:02 | 46.67925 | 1.49539 | 31174 ft | 442 kts | 203° |
| 2026-04-27 10:02 | 46.62165 | 1.46354 | 31175 ft | 443 kts | 203° |
| 2026-04-27 10:03 | 46.59282 | 1.44763 | 31439 ft | 443 kts | 203° |
| 2026-04-27 10:03 | 46.56401 | 1.43174 | 31819 ft | 442 kts | 203° |
| 2026-04-27 10:03 | 46.53536 | 1.41597 | 32180 ft | 441 kts | 204° |
| 2026-04-27 10:03 | 46.50670 | 1.40020 | 32550 ft | 439 kts | 204° |
| 2026-04-27 10:04 | 46.47814 | 1.38451 | 32912 ft | 438 kts | 204° |
| 2026-04-27 10:04 | 46.44964 | 1.36888 | 33260 ft | 437 kts | 204° |
| 2026-04-27 10:04 | 46.42121 | 1.35329 | 33606 ft | 436 kts | 204° |
| 2026-04-27 10:04 | 46.39281 | 1.33774 | 33962 ft | 435 kts | 204° |
| 2026-04-27 10:05 | 46.36455 | 1.32229 | 34307 ft | 434 kts | 204° |
| 2026-04-27 10:05 | 46.33633 | 1.30687 | 34579 ft | 433 kts | 204° |
| 2026-04-27 10:05 | 46.30822 | 1.29153 | 34831 ft | 433 kts | 204° |
| 2026-04-27 10:05 | 46.28003 | 1.27616 | 35080 ft | 432 kts | 204° |
| 2026-04-27 10:06 | 46.25184 | 1.26082 | 35190 ft | 433 kts | 204° |
| 2026-04-27 10:06 | 46.22369 | 1.24551 | 35174 ft | 432 kts | 204° |
| 2026-04-27 10:06 | 46.16745 | 1.21497 | 35169 ft | 432 kts | 204° |
| 2026-04-27 10:07 | 46.11120 | 1.18449 | 35162 ft | 432 kts | 204° |
| 2026-04-27 10:07 | 46.05482 | 1.15401 | 35160 ft | 433 kts | 204° |
| 2026-04-27 10:08 | 45.99837 | 1.12355 | 35158 ft | 433 kts | 204° |
| 2026-04-27 10:08 | 45.94194 | 1.09317 | 35155 ft | 433 kts | 204° |
| 2026-04-27 10:09 | 45.88579 | 1.06300 | 35156 ft | 434 kts | 203° |
| 2026-04-27 10:09 | 45.82927 | 1.03225 | 35153 ft | 433 kts | 208° |
| 2026-04-27 10:10 | 45.80421 | 1.00936 | 35152 ft | 426 kts | 222° |
| 2026-04-27 10:10 | 45.78123 | 0.98244 | 35152 ft | 428 kts | 221° |
| 2026-04-27 10:10 | 45.73511 | 0.92841 | 35160 ft | 428 kts | 221° |
| 2026-04-27 10:11 | 45.68907 | 0.87360 | 35173 ft | 433 kts | 221° |
| 2026-04-27 10:11 | 45.64289 | 0.81852 | 35155 ft | 432 kts | 222° |
| 2026-04-27 10:12 | 45.59667 | 0.76350 | 35158 ft | 433 kts | 221° |
| 2026-04-27 10:12 | 45.55038 | 0.70853 | 35151 ft | 433 kts | 221° |
| 2026-04-27 10:13 | 45.50406 | 0.65364 | 35152 ft | 433 kts | 221° |
| 2026-04-27 10:13 | 45.45767 | 0.59878 | 35153 ft | 434 kts | 221° |
| 2026-04-27 10:14 | 45.41117 | 0.54393 | 35152 ft | 434 kts | 221° |
| 2026-04-27 10:14 | 45.36464 | 0.48915 | 35151 ft | 434 kts | 221° |
| 2026-04-27 10:15 | 45.31804 | 0.43440 | 35152 ft | 435 kts | 221° |
| 2026-04-27 10:15 | 45.27141 | 0.37975 | 35149 ft | 435 kts | 221° |
| 2026-04-27 10:16 | 45.22466 | 0.32509 | 35149 ft | 435 kts | 221° |
| 2026-04-27 10:16 | 45.17790 | 0.27052 | 35150 ft | 435 kts | 221° |
| 2026-04-27 10:17 | 45.13104 | 0.21596 | 35148 ft | 436 kts | 221° |
| 2026-04-27 10:17 | 45.08442 | 0.16178 | 35150 ft | 436 kts | 221° |
| 2026-04-27 10:18 | 45.03711 | 0.10693 | 35146 ft | 437 kts | 221° |
| 2026-04-27 10:18 | 44.99035 | 0.05287 | 35149 ft | 437 kts | 221° |
| 2026-04-27 10:19 | 44.94321 | -0.00154 | 35159 ft | 438 kts | 221° |
| 2026-04-27 10:19 | 44.89600 | -0.05590 | 35154 ft | 438 kts | 221° |
| 2026-04-27 10:20 | 44.84868 | -0.11028 | 35147 ft | 439 kts | 221° |
| 2026-04-27 10:20 | 44.80130 | -0.16460 | 35160 ft | 439 kts | 221° |
| 2026-04-27 10:21 | 44.75386 | -0.21888 | 35155 ft | 440 kts | 220° |
| 2026-04-27 10:21 | 44.70632 | -0.27314 | 35152 ft | 440 kts | 220° |
| 2026-04-27 10:22 | 44.65868 | -0.32738 | 35155 ft | 441 kts | 219° |
| 2026-04-27 10:22 | 44.63274 | -0.35026 | 35160 ft | 442 kts | 208° |
| 2026-04-27 10:22 | 44.60545 | -0.37016 | 35146 ft | 443 kts | 210° |
| 2026-04-27 10:23 | 44.55088 | -0.41059 | 35157 ft | 444 kts | 210° |
| 2026-04-27 10:23 | 44.49664 | -0.45044 | 35151 ft | 444 kts | 209° |
| 2026-04-27 10:24 | 44.44188 | -0.49057 | 35158 ft | 445 kts | 209° |
| 2026-04-27 10:24 | 44.38704 | -0.53068 | 35161 ft | 445 kts | 209° |
| 2026-04-27 10:25 | 44.33219 | -0.57070 | 35162 ft | 445 kts | 209° |
| 2026-04-27 10:25 | 44.27720 | -0.61074 | 35168 ft | 445 kts | 209° |
| 2026-04-27 10:26 | 44.22223 | -0.65068 | 35161 ft | 446 kts | 209° |
| 2026-04-27 10:26 | 44.16719 | -0.69059 | 35160 ft | 446 kts | 209° |
| 2026-04-27 10:27 | 44.11216 | -0.73041 | 35164 ft | 446 kts | 209° |
| 2026-04-27 10:27 | 44.05703 | -0.77021 | 35158 ft | 446 kts | 209° |
| 2026-04-27 10:28 | 44.00180 | -0.81000 | 35159 ft | 447 kts | 209° |
| 2026-04-27 10:28 | 43.94658 | -0.84971 | 35161 ft | 447 kts | 208° |
| 2026-04-27 10:29 | 43.90067 | -0.88265 | 35162 ft | 448 kts | 208° |
| 2026-04-27 10:29 | 43.83595 | -0.92899 | 35163 ft | 448 kts | 208° |
| 2026-04-27 10:30 | 43.78054 | -0.96858 | 35158 ft | 449 kts | 208° |
| 2026-04-27 10:30 | 43.72496 | -1.00820 | 35156 ft | 449 kts | 208° |
| 2026-04-27 10:31 | 43.67883 | -1.04102 | 35154 ft | 449 kts | 208° |
| 2026-04-27 10:31 | 43.62324 | -1.08051 | 35155 ft | 449 kts | 208° |
| 2026-04-27 10:32 | 43.56758 | -1.11996 | 35157 ft | 450 kts | 208° |
| 2026-04-27 10:32 | 43.51189 | -1.15934 | 35161 ft | 450 kts | 208° |
| 2026-04-27 10:33 | 43.45610 | -1.19871 | 35183 ft | 451 kts | 208° |
| 2026-04-27 10:33 | 43.40027 | -1.23803 | 35170 ft | 451 kts | 208° |
| 2026-04-27 10:34 | 43.34440 | -1.27730 | 35179 ft | 452 kts | 208° |
| 2026-04-27 10:34 | 43.28875 | -1.31633 | 35177 ft | 452 kts | 208° |
| 2026-04-27 10:35 | 43.23276 | -1.35552 | 35170 ft | 452 kts | 208° |
| 2026-04-27 10:35 | 43.17667 | -1.39471 | 35157 ft | 452 kts | 208° |
| 2026-04-27 10:36 | 43.12061 | -1.43380 | 35166 ft | 453 kts | 208° |
| 2026-04-27 10:36 | 43.06451 | -1.47286 | 35150 ft | 452 kts | 208° |
| 2026-04-27 10:37 | 43.00836 | -1.51195 | 35159 ft | 453 kts | 208° |
| 2026-04-27 10:37 | 42.95218 | -1.55099 | 35154 ft | 453 kts | 208° |
| 2026-04-27 10:38 | 42.89589 | -1.59002 | 35156 ft | 454 kts | 208° |
| 2026-04-27 10:38 | 42.83959 | -1.62897 | 35149 ft | 454 kts | 207° |
| 2026-04-27 10:39 | 42.78321 | -1.66791 | 35159 ft | 455 kts | 207° |
| 2026-04-27 10:39 | 42.72675 | -1.70660 | 35181 ft | 456 kts | 207° |
| 2026-04-27 10:40 | 42.69833 | -1.72572 | 35449 ft | 455 kts | 207° |
| 2026-04-27 10:40 | 42.67002 | -1.74480 | 35695 ft | 454 kts | 207° |
| 2026-04-27 10:40 | 42.64171 | -1.76386 | 35948 ft | 453 kts | 207° |
| 2026-04-27 10:40 | 42.61347 | -1.78286 | 36186 ft | 453 kts | 207° |
| 2026-04-27 10:41 | 42.58527 | -1.80182 | 36412 ft | 452 kts | 207° |
| 2026-04-27 10:41 | 42.55707 | -1.82075 | 36636 ft | 452 kts | 207° |
| 2026-04-27 10:41 | 42.52892 | -1.83963 | 36859 ft | 451 kts | 207° |
| 2026-04-27 10:41 | 42.50083 | -1.85846 | 37050 ft | 450 kts | 207° |
| 2026-04-27 10:42 | 42.47272 | -1.87728 | 37164 ft | 451 kts | 207° |
| 2026-04-27 10:42 | 42.44462 | -1.89608 | 37140 ft | 450 kts | 207° |
| 2026-04-27 10:42 | 42.38857 | -1.93344 | 37142 ft | 449 kts | 207° |
| 2026-04-27 10:43 | 42.33248 | -1.97081 | 37141 ft | 449 kts | 207° |
| 2026-04-27 10:43 | 42.27643 | -2.00810 | 37141 ft | 449 kts | 207° |
| 2026-04-27 10:44 | 42.22071 | -2.04500 | 37138 ft | 449 kts | 207° |
| 2026-04-27 10:44 | 42.16461 | -2.08207 | 37137 ft | 449 kts | 207° |
| 2026-04-27 10:45 | 42.10853 | -2.11910 | 37137 ft | 449 kts | 207° |
| 2026-04-27 10:45 | 42.05247 | -2.15604 | 37139 ft | 449 kts | 207° |
| 2026-04-27 10:46 | 41.99637 | -2.19292 | 37139 ft | 449 kts | 207° |
| 2026-04-27 10:46 | 41.94028 | -2.22975 | 37135 ft | 449 kts | 207° |
| 2026-04-27 10:47 | 41.88418 | -2.26649 | 37134 ft | 448 kts | 207° |
| 2026-04-27 10:47 | 41.82810 | -2.30315 | 37131 ft | 448 kts | 207° |
| 2026-04-27 10:48 | 41.77208 | -2.33971 | 37131 ft | 448 kts | 207° |
| 2026-04-27 10:48 | 41.71604 | -2.37619 | 37133 ft | 448 kts | 207° |
| 2026-04-27 10:49 | 41.65984 | -2.41272 | 37124 ft | 449 kts | 207° |
| 2026-04-27 10:49 | 41.60356 | -2.44923 | 37122 ft | 449 kts | 207° |
| 2026-04-27 10:50 | 41.54726 | -2.48568 | 37123 ft | 450 kts | 207° |
| 2026-04-27 10:50 | 41.49128 | -2.52185 | 37122 ft | 450 kts | 207° |
| 2026-04-27 10:51 | 41.43497 | -2.55815 | 37119 ft | 450 kts | 207° |
| 2026-04-27 10:51 | 41.37857 | -2.59445 | 37118 ft | 450 kts | 207° |
| 2026-04-27 10:52 | 41.32245 | -2.63129 | 37106 ft | 449 kts | 213° |
| 2026-04-27 10:52 | 41.27110 | -2.67828 | 37101 ft | 449 kts | 216° |
| 2026-04-27 10:53 | 41.19400 | -2.74911 | 37106 ft | 449 kts | 216° |
| 2026-04-27 10:54 | 41.14259 | -2.79629 | 37108 ft | 449 kts | 216° |
| 2026-04-27 10:54 | 41.09113 | -2.84343 | 37098 ft | 449 kts | 216° |
| 2026-04-27 10:55 | 41.03966 | -2.89050 | 37115 ft | 450 kts | 216° |
| 2026-04-27 10:55 | 40.98811 | -2.93754 | 37098 ft | 450 kts | 215° |
| 2026-04-27 10:56 | 40.93657 | -2.98447 | 37103 ft | 450 kts | 215° |
| 2026-04-27 10:56 | 40.88499 | -3.03136 | 37106 ft | 450 kts | 215° |
| 2026-04-27 10:57 | 40.83341 | -3.07816 | 37097 ft | 450 kts | 215° |
| 2026-04-27 10:57 | 40.78176 | -3.12494 | 37097 ft | 450 kts | 215° |
| 2026-04-27 10:58 | 40.73001 | -3.17169 | 37103 ft | 450 kts | 215° |
| 2026-04-27 10:58 | 40.67830 | -3.21834 | 37113 ft | 451 kts | 215° |
| 2026-04-27 10:59 | 40.62655 | -3.26493 | 37117 ft | 451 kts | 215° |
| 2026-04-27 10:59 | 40.57514 | -3.31113 | 37125 ft | 451 kts | 215° |
| 2026-04-27 11:00 | 40.49708 | -3.38111 | 37130 ft | 451 kts | 215° |
| 2026-04-27 11:00 | 40.44556 | -3.42719 | 37133 ft | 451 kts | 215° |
| 2026-04-27 11:01 | 40.39363 | -3.47354 | 37126 ft | 451 kts | 215° |
| 2026-04-27 11:01 | 40.34171 | -3.51980 | 37129 ft | 451 kts | 215° |
| 2026-04-27 11:02 | 40.28973 | -3.56603 | 37125 ft | 452 kts | 215° |
| 2026-04-27 11:02 | 40.23767 | -3.61223 | 37126 ft | 452 kts | 215° |
| 2026-04-27 11:03 | 40.18564 | -3.65834 | 37126 ft | 452 kts | 215° |
| 2026-04-27 11:03 | 40.13344 | -3.70452 | 37124 ft | 452 kts | 215° |
| 2026-04-27 11:04 | 40.08132 | -3.75049 | 37111 ft | 452 kts | 214° |
| 2026-04-27 11:04 | 40.02916 | -3.79643 | 37107 ft | 452 kts | 214° |
| 2026-04-27 11:05 | 39.97697 | -3.84232 | 37097 ft | 452 kts | 214° |
| 2026-04-27 11:05 | 39.92469 | -3.88820 | 37091 ft | 453 kts | 214° |
| 2026-04-27 11:06 | 39.87278 | -3.93367 | 37094 ft | 452 kts | 214° |
| 2026-04-27 11:06 | 39.82051 | -3.97937 | 37089 ft | 453 kts | 214° |
| 2026-04-27 11:07 | 39.76827 | -4.02496 | 37085 ft | 453 kts | 214° |
| 2026-04-27 11:07 | 39.71593 | -4.07055 | 37080 ft | 453 kts | 214° |
| 2026-04-27 11:08 | 39.66360 | -4.11605 | 37077 ft | 453 kts | 214° |
| 2026-04-27 11:08 | 39.61120 | -4.16152 | 37076 ft | 453 kts | 215° |
| 2026-04-27 11:09 | 39.55881 | -4.20689 | 37077 ft | 453 kts | 214° |
| 2026-04-27 11:09 | 39.50647 | -4.25216 | 37074 ft | 453 kts | 214° |
| 2026-04-27 11:10 | 39.45400 | -4.29743 | 37065 ft | 453 kts | 215° |
| 2026-04-27 11:10 | 39.40156 | -4.34262 | 37066 ft | 453 kts | 214° |
| 2026-04-27 11:11 | 39.34904 | -4.38777 | 37061 ft | 453 kts | 214° |
| 2026-04-27 11:11 | 39.29650 | -4.43287 | 37060 ft | 453 kts | 214° |
| 2026-04-27 11:12 | 39.24431 | -4.47759 | 37062 ft | 453 kts | 214° |
| 2026-04-27 11:12 | 39.19177 | -4.52252 | 37052 ft | 453 kts | 214° |
| 2026-04-27 11:13 | 39.13918 | -4.56741 | 37061 ft | 453 kts | 215° |
| 2026-04-27 11:13 | 39.08659 | -4.61223 | 37053 ft | 453 kts | 214° |
| 2026-04-27 11:14 | 39.03401 | -4.65696 | 37047 ft | 453 kts | 214° |
| 2026-04-27 11:14 | 38.98143 | -4.70159 | 37044 ft | 453 kts | 215° |
| 2026-04-27 11:15 | 38.92881 | -4.74616 | 37044 ft | 453 kts | 214° |
| 2026-04-27 11:15 | 38.87617 | -4.79069 | 37041 ft | 453 kts | 214° |
| 2026-04-27 11:16 | 38.82351 | -4.83513 | 37041 ft | 453 kts | 214° |
| 2026-04-27 11:16 | 38.77088 | -4.87948 | 37041 ft | 453 kts | 214° |
| 2026-04-27 11:17 | 38.71824 | -4.92376 | 37037 ft | 453 kts | 214° |
| 2026-04-27 11:17 | 38.66555 | -4.96800 | 37032 ft | 453 kts | 214° |
| 2026-04-27 11:18 | 38.61287 | -5.01215 | 37030 ft | 452 kts | 214° |
| 2026-04-27 11:18 | 38.56025 | -5.05618 | 37030 ft | 453 kts | 214° |
| 2026-04-27 11:19 | 38.50728 | -5.09968 | 37025 ft | 453 kts | 209° |
| 2026-04-27 11:19 | 38.45115 | -5.13513 | 37021 ft | 454 kts | 207° |
| 2026-04-27 11:20 | 38.40364 | -5.16473 | 37027 ft | 453 kts | 207° |
| 2026-04-27 11:20 | 38.34698 | -5.19991 | 37023 ft | 453 kts | 207° |
| 2026-04-27 11:21 | 38.29026 | -5.23506 | 37020 ft | 453 kts | 207° |
| 2026-04-27 11:21 | 38.23360 | -5.27012 | 37022 ft | 453 kts | 207° |
| 2026-04-27 11:22 | 38.17693 | -5.30511 | 37019 ft | 452 kts | 207° |
| 2026-04-27 11:22 | 38.12033 | -5.34000 | 37019 ft | 452 kts | 207° |
| 2026-04-27 11:23 | 38.06367 | -5.37486 | 37017 ft | 452 kts | 207° |
| 2026-04-27 11:23 | 38.00706 | -5.40965 | 37017 ft | 452 kts | 207° |
| 2026-04-27 11:24 | 37.95046 | -5.44436 | 37021 ft | 452 kts | 207° |
| 2026-04-27 11:24 | 37.89396 | -5.47895 | 37015 ft | 452 kts | 207° |
| 2026-04-27 11:25 | 37.83750 | -5.51346 | 37014 ft | 452 kts | 207° |
| 2026-04-27 11:25 | 37.78092 | -5.54798 | 37013 ft | 452 kts | 207° |
| 2026-04-27 11:26 | 37.72428 | -5.58248 | 37010 ft | 451 kts | 207° |
| 2026-04-27 11:26 | 37.66772 | -5.61687 | 37005 ft | 451 kts | 207° |
| 2026-04-27 11:27 | 37.61114 | -5.65122 | 36998 ft | 451 kts | 207° |
| 2026-04-27 11:27 | 37.55460 | -5.68548 | 36991 ft | 451 kts | 207° |
| 2026-04-27 11:28 | 37.49844 | -5.71947 | 36994 ft | 450 kts | 207° |
| 2026-04-27 11:28 | 37.44225 | -5.75347 | 36990 ft | 447 kts | 208° |
| 2026-04-27 11:29 | 37.41623 | -5.77526 | 36983 ft | 442 kts | 223° |
| 2026-04-27 11:29 | 37.39271 | -5.80033 | 36984 ft | 444 kts | 221° |
| 2026-04-27 11:29 | 37.34555 | -5.84980 | 36995 ft | 445 kts | 221° |
| 2026-04-27 11:30 | 37.29826 | -5.89999 | 36992 ft | 445 kts | 221° |
| 2026-04-27 11:30 | 37.25092 | -5.95023 | 36996 ft | 446 kts | 221° |
| 2026-04-27 11:31 | 37.20352 | -6.00047 | 36992 ft | 446 kts | 221° |
| 2026-04-27 11:31 | 37.15608 | -6.05066 | 36987 ft | 446 kts | 221° |
| 2026-04-27 11:32 | 37.10860 | -6.10080 | 36982 ft | 446 kts | 221° |
| 2026-04-27 11:32 | 37.06109 | -6.15089 | 36984 ft | 446 kts | 221° |
| 2026-04-27 11:33 | 37.01361 | -6.20087 | 36980 ft | 446 kts | 221° |
| 2026-04-27 11:33 | 36.96607 | -6.25083 | 36985 ft | 446 kts | 221° |
| 2026-04-27 11:34 | 36.91854 | -6.30068 | 36984 ft | 446 kts | 221° |
| 2026-04-27 11:34 | 36.87108 | -6.35039 | 36986 ft | 446 kts | 221° |
| 2026-04-27 11:35 | 36.82354 | -6.40009 | 36987 ft | 445 kts | 221° |
| 2026-04-27 11:35 | 36.77601 | -6.44971 | 36989 ft | 445 kts | 221° |
| 2026-04-27 11:36 | 36.72883 | -6.49886 | 36993 ft | 444 kts | 220° |
| 2026-04-27 11:36 | 36.68126 | -6.54835 | 36989 ft | 442 kts | 220° |
| 2026-04-27 11:37 | 36.63437 | -6.59705 | 36986 ft | 441 kts | 220° |
| 2026-04-27 11:37 | 36.58722 | -6.64594 | 36985 ft | 441 kts | 220° |
| 2026-04-27 11:38 | 36.54008 | -6.69476 | 36985 ft | 440 kts | 220° |
| 2026-04-27 11:38 | 36.49298 | -6.74341 | 36981 ft | 440 kts | 220° |
| 2026-04-27 11:39 | 36.44592 | -6.79194 | 36980 ft | 439 kts | 220° |
| 2026-04-27 11:39 | 36.39896 | -6.84029 | 36978 ft | 438 kts | 220° |
| 2026-04-27 11:40 | 36.35203 | -6.88854 | 36978 ft | 437 kts | 220° |
| 2026-04-27 11:40 | 36.30526 | -6.93655 | 36977 ft | 436 kts | 220° |
| 2026-04-27 11:41 | 36.25853 | -6.98443 | 36971 ft | 435 kts | 220° |
| 2026-04-27 11:41 | 36.21189 | -7.03215 | 36970 ft | 434 kts | 220° |
| 2026-04-27 11:42 | 36.16539 | -7.07965 | 36968 ft | 433 kts | 220° |
| 2026-04-27 11:42 | 36.11893 | -7.12704 | 36966 ft | 433 kts | 220° |
| 2026-04-27 11:43 | 36.07253 | -7.17428 | 36965 ft | 431 kts | 220° |
| 2026-04-27 11:43 | 36.02626 | -7.22133 | 36982 ft | 429 kts | 219° |
| 2026-04-27 11:44 | 35.98040 | -7.26787 | 36958 ft | 426 kts | 219° |
| 2026-04-27 11:44 | 35.93455 | -7.31434 | 36951 ft | 426 kts | 219° |
| 2026-04-27 11:45 | 35.89644 | -7.35291 | 36948 ft | 427 kts | 219° |
| 2026-04-27 11:45 | 35.84271 | -7.40722 | 36946 ft | 427 kts | 219° |
| 2026-04-27 11:46 | 35.79685 | -7.45305 | 36946 ft | 428 kts | 219° |
| 2026-04-27 11:46 | 35.75061 | -7.49922 | 36941 ft | 428 kts | 218° |
| 2026-04-27 11:47 | 35.70428 | -7.54541 | 36933 ft | 429 kts | 218° |
| 2026-04-27 11:47 | 35.65792 | -7.59156 | 36935 ft | 429 kts | 218° |
| 2026-04-27 11:48 | 35.61154 | -7.63766 | 36931 ft | 429 kts | 218° |
| 2026-04-27 11:48 | 35.56514 | -7.68372 | 36929 ft | 429 kts | 218° |
| 2026-04-27 11:49 | 35.51870 | -7.72973 | 36925 ft | 429 kts | 218° |
| 2026-04-27 11:49 | 35.47226 | -7.77568 | 36920 ft | 429 kts | 218° |
| 2026-04-27 11:50 | 35.42580 | -7.82160 | 36919 ft | 429 kts | 218° |
| 2026-04-27 11:50 | 35.37957 | -7.86787 | 36919 ft | 429 kts | 219° |
| 2026-04-27 11:51 | 35.33339 | -7.91404 | 36917 ft | 429 kts | 218° |
| 2026-04-27 11:52 | 35.26404 | -7.98322 | 36918 ft | 428 kts | 218° |
| 2026-04-27 11:52 | 35.21782 | -8.02924 | 36915 ft | 428 kts | 218° |
| 2026-04-27 11:53 | 35.17156 | -8.07524 | 36912 ft | 428 kts | 218° |
| 2026-04-27 11:53 | 35.12528 | -8.12118 | 36912 ft | 428 kts | 218° |
| 2026-04-27 11:54 | 35.07903 | -8.16702 | 36908 ft | 428 kts | 218° |
| 2026-04-27 11:54 | 35.03278 | -8.21280 | 36909 ft | 428 kts | 218° |
| 2026-04-27 11:55 | 34.98650 | -8.25853 | 36907 ft | 428 kts | 218° |
| 2026-04-27 11:55 | 34.94018 | -8.30424 | 36909 ft | 428 kts | 218° |
| 2026-04-27 11:56 | 34.89420 | -8.34954 | 36904 ft | 428 kts | 218° |
| 2026-04-27 11:56 | 34.84784 | -8.39515 | 36907 ft | 428 kts | 218° |
| 2026-04-27 11:57 | 34.80149 | -8.44068 | 36906 ft | 428 kts | 218° |
| 2026-04-27 11:57 | 34.75511 | -8.48618 | 36907 ft | 428 kts | 218° |
| 2026-04-27 11:58 | 34.70872 | -8.53161 | 36905 ft | 428 kts | 218° |
| 2026-04-27 11:58 | 34.66225 | -8.57705 | 36909 ft | 429 kts | 218° |
| 2026-04-27 11:59 | 34.61577 | -8.62244 | 36906 ft | 429 kts | 218° |
| 2026-04-27 11:59 | 34.56925 | -8.66781 | 36906 ft | 429 kts | 218° |
| 2026-04-27 12:00 | 34.52276 | -8.71308 | 36898 ft | 429 kts | 218° |
| 2026-04-27 12:00 | 34.47620 | -8.75836 | 36904 ft | 429 kts | 218° |
| 2026-04-27 12:01 | 34.42950 | -8.80350 | 36898 ft | 429 kts | 217° |
| 2026-04-27 12:01 | 34.38275 | -8.84847 | 36899 ft | 429 kts | 217° |
| 2026-04-27 12:02 | 34.33600 | -8.89340 | 36906 ft | 429 kts | 217° |
| 2026-04-27 12:02 | 34.28916 | -8.93835 | 36900 ft | 430 kts | 217° |
| 2026-04-27 12:03 | 34.24233 | -8.98322 | 36899 ft | 430 kts | 217° |
| 2026-04-27 12:03 | 34.19576 | -9.02779 | 36898 ft | 430 kts | 217° |
| 2026-04-27 12:04 | 34.14884 | -9.07261 | 36900 ft | 430 kts | 217° |
| 2026-04-27 12:04 | 34.10186 | -9.11745 | 36903 ft | 430 kts | 217° |
| 2026-04-27 12:05 | 34.05486 | -9.16222 | 36900 ft | 431 kts | 217° |
| 2026-04-27 12:05 | 34.00783 | -9.20696 | 36903 ft | 431 kts | 217° |
| 2026-04-27 12:06 | 33.96076 | -9.25167 | 36912 ft | 431 kts | 217° |
| 2026-04-27 12:06 | 33.91366 | -9.29634 | 36905 ft | 431 kts | 217° |
| 2026-04-27 12:07 | 33.86652 | -9.34099 | 36910 ft | 432 kts | 217° |
| 2026-04-27 12:07 | 33.81930 | -9.38566 | 36910 ft | 432 kts | 217° |
| 2026-04-27 12:08 | 33.77233 | -9.43002 | 36906 ft | 432 kts | 217° |
| 2026-04-27 12:08 | 33.72503 | -9.47462 | 36907 ft | 432 kts | 217° |
| 2026-04-27 12:09 | 33.67764 | -9.51925 | 36909 ft | 433 kts | 217° |
| 2026-04-27 12:09 | 33.63023 | -9.56384 | 36916 ft | 433 kts | 217° |
| 2026-04-27 12:10 | 33.58282 | -9.60835 | 36914 ft | 433 kts | 217° |
| 2026-04-27 12:10 | 33.54336 | -9.64536 | 36915 ft | 433 kts | 217° |
| 2026-04-27 12:11 | 33.49584 | -9.68986 | 36921 ft | 434 kts | 217° |
| 2026-04-27 12:11 | 33.44829 | -9.73434 | 36923 ft | 434 kts | 217° |
| 2026-04-27 12:12 | 33.40067 | -9.77880 | 36922 ft | 434 kts | 217° |
| 2026-04-27 12:12 | 33.35300 | -9.82326 | 36924 ft | 435 kts | 217° |
| 2026-04-27 12:13 | 33.30528 | -9.86769 | 36926 ft | 435 kts | 217° |
| 2026-04-27 12:13 | 33.25755 | -9.91208 | 36926 ft | 435 kts | 217° |
| 2026-04-27 12:14 | 33.20972 | -9.95649 | 36927 ft | 435 kts | 217° |
| 2026-04-27 12:14 | 33.16189 | -10.00084 | 36929 ft | 436 kts | 217° |
| 2026-04-27 12:15 | 33.11397 | -10.04522 | 36933 ft | 436 kts | 217° |
| 2026-04-27 12:15 | 33.06603 | -10.08956 | 36934 ft | 436 kts | 217° |
| 2026-04-27 12:16 | 33.01804 | -10.13387 | 36932 ft | 437 kts | 217° |
| 2026-04-27 12:16 | 32.96995 | -10.17811 | 36933 ft | 437 kts | 217° |
| 2026-04-27 12:17 | 32.92214 | -10.22208 | 36935 ft | 437 kts | 217° |
| 2026-04-27 12:17 | 32.87392 | -10.26634 | 36936 ft | 438 kts | 217° |
| 2026-04-27 12:18 | 32.82571 | -10.31055 | 36937 ft | 438 kts | 217° |
| 2026-04-27 12:18 | 32.77739 | -10.35478 | 36942 ft | 438 kts | 217° |
| 2026-04-27 12:19 | 32.72903 | -10.39899 | 36946 ft | 439 kts | 217° |
| 2026-04-27 12:19 | 32.68063 | -10.44318 | 36944 ft | 439 kts | 217° |
| 2026-04-27 12:20 | 32.63223 | -10.48728 | 36946 ft | 439 kts | 217° |
| 2026-04-27 12:20 | 32.58380 | -10.53138 | 36947 ft | 439 kts | 217° |
| 2026-04-27 12:21 | 32.53535 | -10.57543 | 36946 ft | 439 kts | 217° |
| 2026-04-27 12:21 | 32.48689 | -10.61943 | 36950 ft | 439 kts | 217° |
| 2026-04-27 12:22 | 32.43833 | -10.66345 | 36951 ft | 439 kts | 217° |
| 2026-04-27 12:22 | 32.38978 | -10.70740 | 36953 ft | 439 kts | 217° |
| 2026-04-27 12:23 | 32.34119 | -10.75132 | 36955 ft | 440 kts | 217° |
| 2026-04-27 12:23 | 32.29256 | -10.79522 | 36955 ft | 440 kts | 217° |
| 2026-04-27 12:24 | 32.24393 | -10.83907 | 36956 ft | 440 kts | 217° |
| 2026-04-27 12:24 | 32.19556 | -10.88261 | 36961 ft | 440 kts | 217° |
| 2026-04-27 12:25 | 32.14686 | -10.92639 | 36961 ft | 440 kts | 217° |
| 2026-04-27 12:25 | 32.09811 | -10.97016 | 36961 ft | 440 kts | 217° |
| 2026-04-27 12:26 | 32.04936 | -11.01387 | 36964 ft | 440 kts | 217° |
| 2026-04-27 12:26 | 32.00057 | -11.05756 | 36966 ft | 440 kts | 217° |
| 2026-04-27 12:27 | 31.95176 | -11.10120 | 36964 ft | 441 kts | 217° |
| 2026-04-27 12:27 | 31.90286 | -11.14486 | 36961 ft | 441 kts | 217° |
| 2026-04-27 12:28 | 31.85397 | -11.18846 | 36967 ft | 441 kts | 217° |
| 2026-04-27 12:28 | 31.80499 | -11.23208 | 36971 ft | 441 kts | 217° |
| 2026-04-27 12:29 | 31.75603 | -11.27567 | 36968 ft | 442 kts | 217° |
| 2026-04-27 12:29 | 31.70712 | -11.31930 | 36974 ft | 442 kts | 217° |
| 2026-04-27 12:30 | 31.65818 | -11.36293 | 36971 ft | 442 kts | 218° |
| 2026-04-27 12:30 | 31.60917 | -11.40655 | 36976 ft | 442 kts | 218° |
| 2026-04-27 12:31 | 31.56014 | -11.45013 | 36976 ft | 442 kts | 217° |
| 2026-04-27 12:31 | 31.51106 | -11.49370 | 36975 ft | 443 kts | 218° |
| 2026-04-27 12:32 | 31.46194 | -11.53723 | 36976 ft | 443 kts | 218° |
| 2026-04-27 12:32 | 31.41272 | -11.58080 | 36978 ft | 444 kts | 218° |
| 2026-04-27 12:33 | 31.36350 | -11.62432 | 36979 ft | 443 kts | 218° |
| 2026-04-27 12:33 | 31.31454 | -11.66755 | 36982 ft | 444 kts | 218° |
| 2026-04-27 12:34 | 31.26527 | -11.71099 | 36980 ft | 444 kts | 218° |
| 2026-04-27 12:34 | 31.21594 | -11.75442 | 36983 ft | 444 kts | 218° |
| 2026-04-27 12:35 | 31.16653 | -11.79787 | 36983 ft | 444 kts | 218° |
| 2026-04-27 12:35 | 31.11712 | -11.84126 | 36985 ft | 445 kts | 218° |
| 2026-04-27 12:36 | 31.06765 | -11.88465 | 36988 ft | 445 kts | 218° |
| 2026-04-27 12:36 | 31.01813 | -11.92801 | 36990 ft | 445 kts | 218° |
| 2026-04-27 12:37 | 30.96856 | -11.97137 | 36986 ft | 446 kts | 218° |
| 2026-04-27 12:37 | 30.91889 | -12.01476 | 36987 ft | 446 kts | 218° |
| 2026-04-27 12:38 | 30.86922 | -12.05808 | 36991 ft | 446 kts | 218° |
| 2026-04-27 12:38 | 30.81953 | -12.10138 | 36994 ft | 446 kts | 218° |
| 2026-04-27 12:39 | 30.77011 | -12.14437 | 36994 ft | 446 kts | 218° |
| 2026-04-27 12:39 | 30.72036 | -12.18760 | 36992 ft | 447 kts | 218° |
| 2026-04-27 12:40 | 30.67053 | -12.23083 | 36997 ft | 447 kts | 218° |
| 2026-04-27 12:40 | 30.62068 | -12.27404 | 36998 ft | 447 kts | 218° |
| 2026-04-27 12:41 | 30.57082 | -12.31720 | 36999 ft | 447 kts | 218° |
| 2026-04-27 12:41 | 30.52092 | -12.36034 | 36997 ft | 448 kts | 218° |
| 2026-04-27 12:42 | 30.47084 | -12.40341 | 37002 ft | 448 kts | 218° |
| 2026-04-27 12:42 | 30.42073 | -12.44648 | 37000 ft | 448 kts | 218° |
| 2026-04-27 12:43 | 30.37062 | -12.48948 | 37003 ft | 449 kts | 218° |
| 2026-04-27 12:43 | 30.32044 | -12.53249 | 37005 ft | 449 kts | 218° |
| 2026-04-27 12:44 | 30.27023 | -12.57547 | 37005 ft | 449 kts | 218° |
| 2026-04-27 12:44 | 30.22001 | -12.61841 | 37007 ft | 449 kts | 218° |
| 2026-04-27 12:45 | 30.16971 | -12.66136 | 37005 ft | 449 kts | 218° |
| 2026-04-27 12:45 | 30.11941 | -12.70425 | 37008 ft | 449 kts | 218° |
| 2026-04-27 12:46 | 30.07094 | -12.74966 | 37011 ft | 449 kts | 221° |
| 2026-04-27 12:46 | 30.02253 | -12.79536 | 37007 ft | 449 kts | 221° |
| 2026-04-27 12:47 | 29.97437 | -12.84062 | 37008 ft | 450 kts | 221° |
| 2026-04-27 12:47 | 29.92552 | -12.88647 | 37011 ft | 450 kts | 221° |
| 2026-04-27 12:48 | 29.87733 | -12.93163 | 37014 ft | 450 kts | 221° |
| 2026-04-27 12:48 | 29.82875 | -12.97710 | 37016 ft | 450 kts | 221° |
| 2026-04-27 12:49 | 29.78013 | -13.02256 | 37019 ft | 450 kts | 221° |
| 2026-04-27 12:49 | 29.73148 | -13.06798 | 37020 ft | 450 kts | 221° |
| 2026-04-27 12:50 | 29.68283 | -13.11334 | 37020 ft | 450 kts | 221° |
| 2026-04-27 12:50 | 29.63419 | -13.15863 | 37019 ft | 450 kts | 221° |
| 2026-04-27 12:51 | 29.58554 | -13.20388 | 37019 ft | 450 kts | 221° |
| 2026-04-27 12:51 | 29.53689 | -13.24907 | 37019 ft | 450 kts | 221° |
| 2026-04-27 12:52 | 29.48823 | -13.29421 | 37021 ft | 450 kts | 221° |
| 2026-04-27 12:52 | 29.43955 | -13.33932 | 37022 ft | 450 kts | 221° |
| 2026-04-27 12:53 | 29.36657 | -13.40682 | 37023 ft | 449 kts | 221° |
| 2026-04-27 12:53 | 29.31788 | -13.45178 | 37027 ft | 449 kts | 221° |
| 2026-04-27 12:54 | 29.26923 | -13.49666 | 37027 ft | 449 kts | 221° |
| 2026-04-27 12:54 | 29.22116 | -13.54094 | 37025 ft | 449 kts | 221° |
| 2026-04-27 12:55 | 29.17255 | -13.58566 | 37025 ft | 448 kts | 221° |
| 2026-04-27 12:55 | 29.12393 | -13.63034 | 37023 ft | 448 kts | 221° |
| 2026-04-27 12:56 | 29.07531 | -13.67496 | 37024 ft | 448 kts | 221° |
| 2026-04-27 12:56 | 29.02669 | -13.71954 | 37019 ft | 448 kts | 221° |
| 2026-04-27 12:57 | 28.97842 | -13.76373 | 37019 ft | 448 kts | 222° |
| 2026-04-27 12:57 | 28.92977 | -13.80821 | 37020 ft | 448 kts | 222° |
| 2026-04-27 12:58 | 28.88119 | -13.85258 | 37023 ft | 447 kts | 222° |
| 2026-04-27 12:58 | 28.83263 | -13.89687 | 37027 ft | 447 kts | 222° |
| 2026-04-27 12:59 | 28.78412 | -13.94107 | 37030 ft | 447 kts | 222° |
| 2026-04-27 12:59 | 28.73555 | -13.98525 | 37037 ft | 446 kts | 222° |
| 2026-04-27 13:00 | 28.69491 | -14.02218 | 37036 ft | 446 kts | 223° |
| 2026-04-27 13:00 | 28.63851 | -14.07339 | 37036 ft | 446 kts | 223° |
| 2026-04-27 13:01 | 28.59787 | -14.11023 | 37040 ft | 446 kts | 223° |
| 2026-04-27 13:01 | 28.54935 | -14.15418 | 37039 ft | 446 kts | 223° |
| 2026-04-27 13:02 | 28.50113 | -14.19779 | 37037 ft | 446 kts | 223° |
| 2026-04-27 13:02 | 28.45262 | -14.24161 | 37038 ft | 445 kts | 223° |
| 2026-04-27 13:03 | 28.40412 | -14.28537 | 37038 ft | 445 kts | 223° |
| 2026-04-27 13:03 | 28.35560 | -14.32911 | 37033 ft | 445 kts | 223° |
| 2026-04-27 13:04 | 28.30708 | -14.37279 | 37035 ft | 445 kts | 224° |
| 2026-04-27 13:04 | 28.25856 | -14.41640 | 37033 ft | 445 kts | 224° |
| 2026-04-27 13:05 | 28.21011 | -14.45991 | 36696 ft | 440 kts | 224° |
| 2026-04-27 13:05 | 28.18617 | -14.48140 | 36120 ft | 438 kts | 224° |
| 2026-04-27 13:05 | 28.16239 | -14.50272 | 35612 ft | 435 kts | 223° |
| 2026-04-27 13:06 | 28.13864 | -14.52401 | 34939 ft | 436 kts | 223° |
| 2026-04-27 13:06 | 28.11474 | -14.54542 | 34166 ft | 440 kts | 223° |
| 2026-04-27 13:06 | 28.09063 | -14.56701 | 33286 ft | 444 kts | 222° |
| 2026-04-27 13:06 | 28.06631 | -14.58877 | 32474 ft | 446 kts | 222° |
| 2026-04-27 13:07 | 28.04193 | -14.61057 | 31732 ft | 447 kts | 221° |
| 2026-04-27 13:07 | 28.01914 | -14.63426 | 30808 ft | 446 kts | 232° |
| 2026-04-27 13:07 | 28.00228 | -14.66360 | 29845 ft | 447 kts | 248° |
| 2026-04-27 13:07 | 27.99201 | -14.69690 | 29185 ft | 450 kts | 255° |
| 2026-04-27 13:08 | 27.98324 | -14.73101 | 28629 ft | 452 kts | 256° |
| 2026-04-27 13:08 | 27.97516 | -14.76525 | 28022 ft | 450 kts | 257° |
| 2026-04-27 13:08 | 27.96741 | -14.79941 | 27390 ft | 445 kts | 258° |
| 2026-04-27 13:08 | 27.95992 | -14.83323 | 26777 ft | 441 kts | 258° |
| 2026-04-27 13:09 | 27.95259 | -14.86676 | 26158 ft | 438 kts | 258° |
| 2026-04-27 13:09 | 27.94534 | -14.90010 | 25568 ft | 435 kts | 258° |
| 2026-04-27 13:09 | 27.93814 | -14.93322 | 24973 ft | 432 kts | 258° |
| 2026-04-27 13:09 | 27.93097 | -14.96612 | 24377 ft | 430 kts | 258° |
| 2026-04-27 13:10 | 27.92381 | -14.99896 | 23785 ft | 429 kts | 258° |
| 2026-04-27 13:10 | 27.91669 | -15.03161 | 23111 ft | 427 kts | 258° |
| 2026-04-27 13:10 | 27.90959 | -15.06407 | 22488 ft | 424 kts | 258° |
| 2026-04-27 13:10 | 27.90255 | -15.09625 | 21903 ft | 420 kts | 258° |
| 2026-04-27 13:11 | 27.89556 | -15.12813 | 21345 ft | 416 kts | 258° |
| 2026-04-27 13:11 | 27.88863 | -15.15972 | 20782 ft | 412 kts | 258° |
| 2026-04-27 13:11 | 27.88175 | -15.19108 | 20227 ft | 409 kts | 258° |
| 2026-04-27 13:11 | 27.87493 | -15.22213 | 19717 ft | 405 kts | 258° |
| 2026-04-27 13:12 | 27.86824 | -15.25253 | 19512 ft | 393 kts | 257° |
| 2026-04-27 13:12 | 27.86171 | -15.28211 | 19302 ft | 383 kts | 257° |
| 2026-04-27 13:12 | 27.85537 | -15.31089 | 19116 ft | 372 kts | 257° |
| 2026-04-27 13:12 | 27.84919 | -15.33888 | 18944 ft | 362 kts | 257° |
| 2026-04-27 13:13 | 27.84320 | -15.36599 | 18921 ft | 348 kts | 257° |
| 2026-04-27 13:13 | 27.83753 | -15.39164 | 18869 ft | 336 kts | 257° |
| 2026-04-27 13:13 | 27.83223 | -15.41689 | 18653 ft | 328 kts | 263° |
| 2026-04-27 13:13 | 27.83312 | -15.44230 | 18326 ft | 323 kts | 284° |
| 2026-04-27 13:14 | 27.83953 | -15.46643 | 18015 ft | 319 kts | 287° |
| 2026-04-27 13:14 | 27.84609 | -15.49017 | 17709 ft | 314 kts | 288° |
| 2026-04-27 13:14 | 27.85271 | -15.51355 | 17398 ft | 311 kts | 288° |
| 2026-04-27 13:14 | 27.85936 | -15.53669 | 17075 ft | 308 kts | 288° |
| 2026-04-27 13:15 | 27.86601 | -15.55959 | 16740 ft | 306 kts | 289° |
| 2026-04-27 13:15 | 27.87267 | -15.58240 | 16396 ft | 303 kts | 289° |
| 2026-04-27 13:15 | 27.87925 | -15.60490 | 16096 ft | 300 kts | 289° |
| 2026-04-27 13:15 | 27.88577 | -15.62718 | 15785 ft | 297 kts | 289° |
| 2026-04-27 13:16 | 27.89227 | -15.64939 | 15468 ft | 300 kts | 289° |
| 2026-04-27 13:16 | 27.89886 | -15.67192 | 15138 ft | 304 kts | 289° |
| 2026-04-27 13:16 | 27.90554 | -15.69476 | 14811 ft | 307 kts | 289° |
| 2026-04-27 13:16 | 27.91223 | -15.71769 | 14471 ft | 306 kts | 289° |
| 2026-04-27 13:17 | 27.91886 | -15.74038 | 14143 ft | 304 kts | 290° |
| 2026-04-27 13:17 | 27.92548 | -15.76310 | 13789 ft | 303 kts | 290° |
| 2026-04-27 13:17 | 27.93207 | -15.78569 | 13435 ft | 302 kts | 290° |
| 2026-04-27 13:17 | 27.93861 | -15.80815 | 13092 ft | 300 kts | 290° |
| 2026-04-27 13:18 | 27.94510 | -15.83047 | 12763 ft | 298 kts | 290° |
| 2026-04-27 13:18 | 27.95158 | -15.85276 | 12399 ft | 298 kts | 290° |
| 2026-04-27 13:18 | 27.95803 | -15.87494 | 12094 ft | 296 kts | 290° |
| 2026-04-27 13:18 | 27.96444 | -15.89698 | 11781 ft | 294 kts | 290° |
| 2026-04-27 13:19 | 27.97076 | -15.91878 | 11573 ft | 288 kts | 290° |
| 2026-04-27 13:19 | 27.97691 | -15.93997 | 11428 ft | 280 kts | 290° |
| 2026-04-27 13:19 | 27.98289 | -15.96058 | 11289 ft | 272 kts | 290° |
| 2026-04-27 13:19 | 27.98869 | -15.98061 | 11147 ft | 264 kts | 290° |
| 2026-04-27 13:20 | 27.99331 | -16.00016 | 10909 ft | 262 kts | 276° |
| 2026-04-27 13:20 | 27.99071 | -16.02064 | 10532 ft | 268 kts | 251° |
| 2026-04-27 13:20 | 27.98368 | -16.04021 | 10223 ft | 268 kts | 250° |
| 2026-04-27 13:20 | 27.97663 | -16.05974 | 9914 ft | 267 kts | 250° |
| 2026-04-27 13:21 | 27.96949 | -16.07925 | 9523 ft | 269 kts | 250° |
| 2026-04-27 13:21 | 27.96225 | -16.09887 | 9135 ft | 272 kts | 249° |
| 2026-04-27 13:21 | 27.95979 | -16.10553 | 8999 ft | 272 kts | 250° |
| 2026-04-27 13:21 | 27.95473 | -16.11918 | 8743 ft | 273 kts | 250° |
| 2026-04-27 13:22 | 27.94738 | -16.13894 | 8385 ft | 273 kts | 249° |
| 2026-04-27 13:22 | 27.94000 | -16.15880 | 8021 ft | 274 kts | 249° |
| 2026-04-27 13:22 | 27.93260 | -16.17865 | 7667 ft | 274 kts | 249° |
| 2026-04-27 13:22 | 27.92517 | -16.19860 | 7276 ft | 276 kts | 249° |
| 2026-04-27 13:23 | 27.91770 | -16.21865 | 6926 ft | 277 kts | 249° |
| 2026-04-27 13:23 | 27.91020 | -16.23876 | 6575 ft | 278 kts | 249° |
| 2026-04-27 13:23 | 27.90275 | -16.25876 | 6357 ft | 273 kts | 249° |
| 2026-04-27 13:23 | 27.89421 | -16.27773 | 6139 ft | 269 kts | 239° |
| 2026-04-27 13:24 | 27.88421 | -16.29531 | 5949 ft | 263 kts | 239° |
| 2026-04-27 13:24 | 27.87456 | -16.31260 | 5765 ft | 257 kts | 240° |
| 2026-04-27 13:24 | 27.86520 | -16.32958 | 5580 ft | 252 kts | 240° |
| 2026-04-27 13:24 | 27.85603 | -16.34638 | 5397 ft | 250 kts | 240° |
| 2026-04-27 13:25 | 27.84695 | -16.36309 | 5219 ft | 249 kts | 240° |
| 2026-04-27 13:25 | 27.83795 | -16.37970 | 5039 ft | 247 kts | 240° |
| 2026-04-27 13:25 | 27.82900 | -16.39626 | 4878 ft | 245 kts | 240° |
| 2026-04-27 13:25 | 27.82033 | -16.41230 | 4859 ft | 234 kts | 240° |
| 2026-04-27 13:26 | 27.81185 | -16.42800 | 4861 ft | 235 kts | 240° |
| 2026-04-27 13:26 | 27.80332 | -16.44376 | 4861 ft | 235 kts | 240° |
| 2026-04-27 13:26 | 27.79480 | -16.45953 | 4859 ft | 236 kts | 240° |
| 2026-04-27 13:26 | 27.78626 | -16.47533 | 4862 ft | 236 kts | 240° |
| 2026-04-27 13:27 | 27.78066 | -16.49240 | 4830 ft | 230 kts | 269° |
| 2026-04-27 13:27 | 27.78315 | -16.50989 | 4831 ft | 226 kts | 294° |
| 2026-04-27 13:27 | 27.78926 | -16.52628 | 4839 ft | 227 kts | 296° |
| 2026-04-27 13:27 | 27.79562 | -16.54255 | 4786 ft | 226 kts | 296° |
| 2026-04-27 13:28 | 27.80212 | -16.55875 | 4723 ft | 226 kts | 296° |
| 2026-04-27 13:28 | 27.80866 | -16.57486 | 4654 ft | 226 kts | 297° |
| 2026-04-27 13:28 | 27.81525 | -16.59092 | 4599 ft | 226 kts | 297° |
| 2026-04-27 13:28 | 27.82189 | -16.60701 | 4531 ft | 226 kts | 297° |
| 2026-04-27 13:29 | 27.82853 | -16.62303 | 4465 ft | 225 kts | 297° |
| 2026-04-27 13:29 | 27.83518 | -16.63902 | 4396 ft | 224 kts | 297° |
| 2026-04-27 13:29 | 27.84182 | -16.65499 | 4335 ft | 224 kts | 296° |
| 2026-04-27 13:29 | 27.84837 | -16.67071 | 4272 ft | 224 kts | 297° |
| 2026-04-27 13:30 | 27.85499 | -16.68659 | 4205 ft | 224 kts | 297° |
| 2026-04-27 13:30 | 27.86178 | -16.70239 | 4145 ft | 223 kts | 303° |
| 2026-04-27 13:30 | 27.87278 | -16.71409 | 4042 ft | 218 kts | 333° |
| 2026-04-27 13:30 | 27.88642 | -16.72101 | 3994 ft | 212 kts | 338° |
| 2026-04-27 13:31 | 27.90010 | -16.72753 | 3938 ft | 209 kts | 338° |
| 2026-04-27 13:31 | 27.91338 | -16.73370 | 3884 ft | 209 kts | 339° |
| 2026-04-27 13:31 | 27.92683 | -16.73986 | 3819 ft | 206 kts | 339° |
| 2026-04-27 13:31 | 27.93978 | -16.74573 | 3743 ft | 195 kts | 339° |
| 2026-04-27 13:32 | 27.95205 | -16.75124 | 3718 ft | 188 kts | 339° |
| 2026-04-27 13:32 | 27.96457 | -16.75515 | 3570 ft | 187 kts | 1° |
| 2026-04-27 13:32 | 27.97675 | -16.75089 | 3322 ft | 186 kts | 36° |
| 2026-04-27 13:32 | 27.98540 | -16.74016 | 3064 ft | 185 kts | 57° |
| 2026-04-27 13:33 | 27.99102 | -16.72733 | 2804 ft | 179 kts | 68° |
| 2026-04-27 13:33 | 27.99535 | -16.71431 | 2577 ft | 176 kts | 69° |
| 2026-04-27 13:33 | 27.99968 | -16.70152 | 2336 ft | 171 kts | 68° |
| 2026-04-27 13:33 | 28.00396 | -16.68913 | 2110 ft | 168 kts | 68° |
| 2026-04-27 13:34 | 28.00810 | -16.67720 | 1905 ft | 157 kts | 68° |
| 2026-04-27 13:34 | 28.01201 | -16.66591 | 1717 ft | 152 kts | 68° |
| 2026-04-27 13:34 | 28.01586 | -16.65486 | 1480 ft | 150 kts | 68° |
| 2026-04-27 13:34 | 28.01960 | -16.64388 | 1324 ft | 148 kts | 69° |
| 2026-04-27 13:35 | 28.02328 | -16.63291 | 1106 ft | 149 kts | 69° |
| 2026-04-27 13:35 | 28.02728 | -16.62205 | 876 ft | 150 kts | 67° |
| 2026-04-27 13:35 | 28.03133 | -16.61126 | 655 ft | 148 kts | 71° |
| 2026-04-27 13:35 | 28.03498 | -16.60052 | 488 ft | 145 kts | 73° |
| 2026-04-27 13:36 | 28.03851 | -16.58980 | 271 ft | 144 kts | 72° |
| 2026-04-27 13:36 | 28.04194 | -16.57963 | 203 ft | 126 kts | 69° |
| 2026-04-27 13:36 | 28.04452 | -16.57237 | 207 ft | 68 kts | 68° |
| 2026-04-27 13:36 | 28.04630 | -16.56913 | 211 ft | 33 kts | 48° |
| 2026-04-27 13:37 | 28.04734 | -16.56794 | 224 ft | 13 kts | 16° |
| 2026-04-27 13:37 | 28.04779 | -16.56840 | 221 ft | 9 kts | 265° |
| 2026-04-27 13:37 | 28.04756 | -16.56914 | 222 ft | 11 kts | 250° |
| 2026-04-27 13:37 | 28.04727 | -16.56998 | 224 ft | 12 kts | 249° |
| 2026-04-27 13:38 | 28.04696 | -16.57089 | 225 ft | 13 kts | 246° |
| 2026-04-27 13:38 | 28.04652 | -16.57190 | 225 ft | 15 kts | 246° |
| 2026-04-27 13:38 | 28.04609 | -16.57310 | 225 ft | 18 kts | 248° |
| 2026-04-27 13:38 | 28.04563 | -16.57449 | 226 ft | 20 kts | 247° |
| 2026-04-27 13:39 | 28.04507 | -16.57600 | 225 ft | 22 kts | 249° |
| 2026-04-27 13:39 | 28.04456 | -16.57749 | 225 ft | 15 kts | 249° |
| 2026-04-27 13:39 | 28.04419 | -16.57851 | 226 ft | 8 kts | 250° |
| 2026-04-27 13:39 | 28.04445 | -16.57903 | 225 ft | 8 kts | 330° |
| 2026-04-27 13:40 | 28.04492 | -16.57926 | 226 ft | 6 kts | 338° |
| 2026-04-27 13:40 | 28.04522 | -16.57925 | 226 ft | 3 kts | 22° |
| 2026-04-27 13:40 | 28.04545 | -16.57910 | 228 ft | 4 kts | 20° |
| 2026-04-27 13:40 | 28.04577 | -16.57903 | 228 ft | 5 kts | 6° |
| 2026-04-27 13:41 | 28.04616 | -16.57899 | 228 ft | 2 kts | 6° |
| 2026-04-27 13:41 | 28.04629 | -16.57897 | 228 ft | 3 kts | 5° |
| 2026-04-27 13:41 | 28.04640 | -16.57896 | 228 ft | 0 kts | 5° |